createdAt,value
2022-11-20T00:00:18.285Z,17.10
2022-11-20T00:02:44.671Z,17.15
2022-11-20T00:05:11.076Z,17.67
2022-11-20T00:07:38.669Z,17.70
2022-11-20T00:10:05.468Z,17.50
2022-11-20T00:12:32.460Z,17.90
2022-11-20T00:14:58.820Z,17.95
2022-11-20T00:17:26.786Z,18.80
2022-11-20T00:19:53.222Z,18.10
2022-11-20T00:22:20.066Z,18.48
2022-11-20T00:24:49.458Z,18.50
2022-11-20T00:27:16.039Z,18.85
2022-11-20T00:29:42.354Z,18.55
2022-11-20T00:32:08.855Z,17.17
2022-11-20T00:34:35.358Z,18.15
2022-11-20T00:37:02.131Z,18.50
2022-11-20T00:39:28.433Z,18.27
2022-11-20T00:41:54.771Z,18.33
2022-11-20T00:44:22.664Z,21.17
2022-11-20T00:46:49.248Z,20.50
2022-11-20T00:49:15.584Z,17.67
2022-11-20T00:51:41.904Z,18.10
2022-11-20T00:54:08.388Z,17.70
2022-11-20T00:56:34.697Z,17.80
2022-11-20T00:59:02.320Z,16.85
2022-11-20T01:01:30.248Z,17.40
2022-11-20T01:04:00.196Z,16.98
2022-11-20T01:06:35.437Z,17.63
2022-11-20T01:09:05.194Z,17.65
2022-11-20T01:11:35.027Z,18.80
2022-11-20T01:14:04.225Z,17.08
2022-11-20T01:16:37.083Z,17.70
2022-11-20T01:19:05.943Z,18.77
2022-11-20T01:21:34.672Z,17.00
2022-11-20T01:24:02.352Z,17.73
2022-11-20T01:26:31.214Z,16.50
2022-11-20T01:28:58.378Z,18.40
2022-11-20T01:31:26.241Z,18.17
2022-11-20T01:33:54.698Z,17.65
2022-11-20T01:38:48.974Z,17.60
2022-11-20T01:41:36.153Z,17.05
2022-11-20T01:44:03.871Z,19.40
2022-11-20T01:46:37.013Z,20.38
2022-11-20T01:49:08.821Z,17.67
2022-11-20T01:52:13.717Z,18.23
2022-11-20T01:54:55.621Z,18.20
2022-11-20T01:57:24.601Z,20.02
2022-11-20T01:59:56.537Z,18.10
2022-11-20T02:02:24.539Z,18.45
2022-11-20T02:04:55.201Z,18.20
2022-11-20T02:07:23.443Z,19.38
2022-11-20T02:09:50.178Z,18.55
2022-11-20T02:12:34.904Z,18.48
2022-11-20T02:15:01.584Z,17.70
2022-11-20T02:17:28.769Z,19.52
2022-11-20T02:19:55.282Z,18.15
2022-11-20T02:22:39.172Z,19.13
2022-11-20T02:25:07.954Z,18.05
2022-11-20T02:27:35.154Z,17.75
2022-11-20T02:30:04.195Z,18.42
2022-11-20T02:32:33.590Z,17.83
2022-11-20T02:35:09.513Z,17.48
2022-11-20T02:37:39.699Z,19.00
2022-11-20T02:40:06.849Z,19.02
2022-11-20T02:42:33.189Z,19.55
2022-11-20T02:44:59.493Z,18.30
2022-11-20T02:47:25.875Z,19.45
2022-11-20T02:49:52.195Z,17.88
2022-11-20T02:52:18.526Z,18.17
2022-11-20T02:54:44.891Z,18.65
2022-11-20T02:57:11.413Z,18.77
2022-11-20T02:59:37.761Z,18.63
2022-11-20T03:02:04.298Z,17.33
2022-11-20T03:04:30.656Z,18.38
2022-11-20T03:06:57.234Z,19.85
2022-11-20T03:09:23.882Z,19.02
2022-11-20T03:11:50.384Z,20.30
2022-11-20T03:14:16.949Z,19.42
2022-11-20T03:16:43.337Z,19.27
2022-11-20T03:19:09.762Z,18.50
2022-11-20T03:21:36.461Z,19.95
2022-11-20T03:24:03.817Z,18.05
2022-11-20T03:26:30.577Z,19.65
2022-11-20T03:28:59.389Z,18.35
2022-11-20T03:31:28.769Z,18.92
2022-11-20T03:33:56.918Z,18.98
2022-11-20T03:36:23.398Z,18.38
2022-11-20T03:38:50.567Z,18.38
2022-11-20T03:41:20.133Z,18.45
2022-11-20T03:43:54.595Z,18.23
2022-11-20T03:46:21.765Z,19.30
2022-11-20T03:48:51.681Z,17.95
2022-11-20T03:51:22.457Z,18.60
2022-11-20T03:53:50.433Z,19.63
2022-11-20T03:56:18.822Z,18.48
2022-11-20T04:01:17.540Z,17.45
2022-11-20T04:03:44.832Z,18.58
2022-11-20T04:06:13.872Z,18.55
2022-11-20T04:08:40.372Z,20.17
2022-11-20T04:11:12.531Z,19.08
2022-11-20T04:13:38.981Z,19.42
2022-11-20T04:16:07.701Z,20.40
2022-11-20T04:18:34.458Z,19.40
2022-11-20T04:21:01.902Z,18.55
2022-11-20T04:23:29.043Z,18.43
2022-11-20T04:25:55.738Z,20.25
2022-11-20T04:28:22.103Z,19.73
2022-11-20T04:30:48.408Z,19.13
2022-11-20T04:33:14.905Z,19.88
2022-11-20T04:35:41.420Z,19.73
2022-11-20T04:38:08.120Z,19.63
2022-11-20T04:40:34.496Z,19.38
2022-11-20T04:43:01.106Z,19.30
2022-11-20T04:45:27.438Z,18.20
2022-11-20T04:47:53.896Z,19.48
2022-11-20T04:50:20.262Z,19.60
2022-11-20T04:52:46.806Z,18.30
2022-11-20T04:55:13.292Z,19.27
2022-11-20T04:57:39.694Z,18.52
2022-11-20T05:00:06.716Z,18.85
2022-11-20T05:02:33.400Z,17.60
2022-11-20T05:04:59.763Z,20.13
2022-11-20T05:07:26.354Z,19.60
2022-11-20T05:09:54.159Z,20.13
2022-11-20T05:12:20.532Z,19.70
2022-11-20T05:14:46.876Z,20.13
2022-11-20T05:17:13.467Z,19.85
2022-11-20T05:19:39.832Z,18.73
2022-11-20T05:22:06.471Z,20.02
2022-11-20T05:24:34.784Z,19.20
2022-11-20T05:27:01.145Z,19.77
2022-11-20T05:29:27.695Z,19.77
2022-11-20T05:31:54.095Z,18.85
2022-11-20T05:34:20.440Z,19.08
2022-11-20T05:36:46.944Z,19.15
2022-11-20T05:39:13.784Z,19.40
2022-11-20T05:41:40.168Z,19.35
2022-11-20T05:44:06.699Z,18.17
2022-11-20T05:46:33.417Z,19.38
2022-11-20T05:48:59.988Z,18.30
2022-11-20T05:51:27.514Z,18.77
2022-11-20T05:53:54.066Z,18.50
2022-11-20T05:56:22.446Z,19.85
2022-11-20T05:58:50.183Z,19.17
2022-11-20T06:01:23.119Z,18.02
2022-11-20T06:03:51.468Z,18.27
2022-11-20T06:06:19.474Z,19.23
2022-11-20T06:08:46.380Z,19.75
2022-11-20T06:11:15.084Z,18.55
2022-11-20T06:13:42.968Z,18.42
2022-11-20T06:16:10.893Z,17.35
2022-11-20T06:18:38.119Z,17.75
2022-11-20T06:21:12.414Z,18.27
2022-11-20T06:23:39.510Z,16.98
2022-11-20T06:26:08.269Z,19.33
2022-11-20T06:28:35.276Z,18.73
2022-11-20T06:31:02.179Z,18.73
2022-11-20T06:33:28.953Z,19.13
2022-11-20T06:36:03.439Z,17.02
2022-11-20T06:38:32.736Z,17.88
2022-11-20T06:40:59.168Z,17.70
2022-11-20T06:43:26.874Z,18.30
2022-11-20T06:45:54.541Z,18.65
2022-11-20T06:48:21.513Z,18.90
2022-11-20T06:50:48.254Z,17.45
2022-11-20T06:53:15.123Z,17.25
2022-11-20T06:55:50.900Z,18.20
2022-11-20T06:58:18.415Z,16.73
2022-11-20T07:00:46.880Z,18.60
2022-11-20T07:03:13.562Z,18.35
2022-11-20T07:05:40.260Z,18.13
2022-11-20T07:08:07.709Z,18.77
2022-11-20T07:10:34.665Z,18.87
2022-11-20T07:13:01.023Z,17.58
2022-11-20T07:15:27.519Z,18.23
2022-11-20T07:17:54.150Z,18.65
2022-11-20T07:20:20.568Z,19.90
2022-11-20T07:22:53.718Z,19.35
2022-11-20T07:25:20.084Z,19.02
2022-11-20T07:27:46.419Z,20.05
2022-11-20T07:30:16.295Z,18.30
2022-11-20T07:32:42.664Z,18.30
2022-11-20T07:35:10.209Z,19.75
2022-11-20T07:37:36.678Z,18.85
2022-11-20T07:40:03.781Z,18.60
2022-11-20T07:42:30.172Z,19.42
2022-11-20T07:44:56.684Z,18.27
2022-11-20T07:47:23.222Z,19.75
2022-11-20T07:49:49.712Z,18.80
2022-11-20T07:52:16.003Z,19.08
2022-11-20T07:54:42.411Z,19.30
2022-11-20T07:57:09.032Z,18.25
2022-11-20T07:59:35.710Z,19.00
2022-11-20T08:02:04.277Z,17.90
2022-11-20T08:04:30.730Z,19.48
2022-11-20T08:06:57.430Z,20.00
2022-11-20T08:09:23.978Z,18.27
2022-11-20T08:12:08.939Z,20.38
2022-11-20T08:14:35.307Z,18.60
2022-11-20T08:17:01.651Z,19.40
2022-11-20T08:19:29.036Z,20.35
2022-11-20T08:21:56.294Z,21.73
2022-11-20T08:24:22.678Z,20.77
2022-11-20T08:26:52.158Z,20.60
2022-11-20T08:29:19.010Z,24.88
2022-11-20T08:31:46.435Z,22.50
2022-11-20T08:34:18.586Z,21.45
2022-11-20T08:36:45.604Z,22.33
2022-11-20T08:39:13.556Z,23.20
2022-11-20T08:41:40.074Z,22.60
2022-11-20T08:44:08.546Z,20.65
2022-11-20T08:46:40.284Z,22.45
2022-11-20T08:49:08.145Z,21.80
2022-11-20T08:51:34.449Z,22.10
2022-11-20T08:54:01.012Z,22.60
2022-11-20T08:56:27.762Z,22.83
2022-11-20T08:59:20.262Z,23.48
2022-11-20T09:01:42.049Z,23.23
2022-11-20T09:04:08.647Z,24.17
2022-11-20T09:06:35.056Z,21.48
2022-11-20T09:09:06.917Z,22.20
2022-11-20T09:11:45.177Z,22.90
2022-11-20T09:14:11.547Z,23.17
2022-11-20T09:16:37.871Z,24.02
2022-11-20T09:21:50.597Z,22.52
2022-11-20T09:24:17.221Z,23.92
2022-11-20T09:26:43.577Z,23.95
2022-11-20T09:29:10.068Z,23.08
2022-11-20T09:31:36.606Z,23.02
2022-11-20T09:34:03.569Z,24.35
2022-11-20T09:36:29.909Z,23.42
2022-11-20T09:38:57.473Z,24.85
2022-11-20T09:41:44.058Z,25.60
2022-11-20T09:44:38.794Z,24.35
2022-11-20T09:47:56.483Z,22.80
2022-11-20T09:50:44.300Z,21.90
2022-11-20T09:53:47.482Z,24.48
2022-11-20T09:56:22.869Z,23.63
2022-11-20T09:58:52.746Z,22.85
2022-11-20T10:01:27.051Z,23.50
2022-11-20T10:04:04.365Z,23.30
2022-11-20T10:09:55.811Z,22.88
2022-11-20T10:12:47.214Z,21.35
2022-11-20T10:15:29.841Z,18.73
2022-11-20T10:18:13.679Z,17.40
2022-11-20T10:20:49.754Z,14.65
2022-11-20T10:23:45.833Z,14.00
2022-11-20T10:26:40.009Z,17.13
2022-11-20T10:29:23.807Z,15.57
2022-11-20T10:31:57.534Z,15.57
2022-11-20T10:34:53.739Z,14.45
2022-11-20T10:37:26.722Z,14.45
2022-11-20T10:40:22.611Z,16.80
2022-11-20T10:43:00.126Z,14.13
2022-11-20T10:45:26.563Z,13.57
2022-11-20T10:47:57.425Z,14.50
2022-11-20T10:50:24.175Z,14.90
2022-11-20T10:53:27.690Z,16.40
2022-11-20T10:56:20.506Z,15.30
2022-11-20T10:59:09.969Z,14.35
2022-11-20T11:01:43.901Z,15.80
2022-11-20T11:04:33.314Z,14.05
2022-11-20T11:07:14.171Z,14.48
2022-11-20T11:09:44.957Z,15.15
2022-11-20T11:12:12.396Z,17.13
2022-11-20T11:14:53.771Z,16.67
2022-11-20T11:17:34.666Z,16.65
2022-11-20T11:20:08.250Z,17.80
2022-11-20T11:22:43.485Z,18.75
2022-11-20T11:25:20.933Z,17.63
2022-11-20T11:27:49.186Z,20.67
2022-11-20T11:30:18.142Z,19.95
2022-11-20T11:32:46.061Z,21.23
2022-11-20T11:35:51.527Z,18.77
2022-11-20T11:38:24.791Z,17.90
2022-11-20T11:40:55.050Z,17.23
2022-11-20T11:43:44.098Z,20.10
2022-11-20T11:46:31.386Z,19.70
2022-11-20T11:49:00.047Z,26.55
2022-11-20T11:51:37.096Z,20.67
2022-11-20T11:54:09.479Z,18.55
2022-11-20T11:56:37.742Z,19.17
2022-11-20T11:59:10.719Z,25.23
2022-11-20T12:01:50.174Z,22.02
2022-11-20T12:04:49.536Z,19.38
2022-11-20T12:07:46.459Z,19.45
2022-11-20T12:10:22.109Z,19.70
2022-11-20T12:13:03.268Z,18.63
2022-11-20T12:15:32.188Z,20.77
2022-11-20T12:17:58.756Z,22.10
2022-11-20T12:20:33.488Z,20.38
2022-11-20T12:23:11.794Z,20.67
2022-11-20T12:28:25.447Z,21.33
2022-11-20T12:31:19.767Z,18.40
2022-11-20T12:34:07.543Z,16.35
2022-11-20T12:36:58.564Z,16.60
2022-11-20T12:39:36.177Z,18.20
2022-11-20T12:42:52.124Z,18.50
2022-11-20T12:45:53.988Z,14.77
2022-11-20T12:48:26.360Z,19.50
2022-11-20T12:51:15.169Z,20.13
2022-11-20T12:54:00.543Z,19.83
2022-11-20T12:56:48.584Z,18.42
2022-11-20T12:59:44.010Z,18.60
2022-11-20T13:02:45.454Z,19.35
2022-11-20T13:05:29.275Z,20.52
2022-11-20T13:07:57.633Z,19.67
2022-11-20T13:10:35.409Z,18.52
2022-11-20T13:13:13.310Z,19.42
2022-11-20T13:15:55.896Z,19.75
2022-11-20T13:18:22.597Z,19.67
2022-11-20T13:20:50.762Z,20.42
2022-11-20T13:23:29.798Z,20.55
2022-11-20T13:26:14.829Z,19.05
2022-11-20T13:28:41.751Z,18.85
2022-11-20T13:31:30.801Z,16.38
2022-11-20T13:33:58.871Z,16.85
2022-11-20T13:36:28.795Z,16.63
2022-11-20T13:38:56.903Z,16.73
2022-11-20T13:41:38.963Z,16.23
2022-11-20T13:44:35.694Z,17.02
2022-11-20T13:47:02.330Z,17.10
2022-11-20T13:49:45.159Z,16.92
2022-11-20T13:52:36.135Z,18.38
2022-11-20T13:55:02.424Z,16.02
2022-11-20T13:57:42.028Z,15.93
2022-11-20T14:00:20.703Z,15.43
2022-11-20T14:03:00.836Z,16.67
2022-11-20T14:05:27.755Z,16.60
2022-11-20T14:07:55.328Z,15.80
2022-11-20T14:10:31.129Z,18.57
2022-11-20T14:12:58.717Z,17.90
2022-11-20T14:15:31.065Z,18.00
2022-11-20T14:17:58.397Z,16.27
2022-11-20T14:20:28.546Z,15.73
2022-11-20T14:22:58.423Z,14.82
2022-11-20T14:25:31.887Z,16.55
2022-11-20T14:28:00.917Z,18.75
2022-11-20T14:30:40.492Z,18.33
2022-11-20T14:33:06.984Z,21.27
2022-11-20T14:35:41.405Z,20.70
2022-11-20T14:38:13.609Z,22.42
2022-11-20T14:40:40.903Z,20.52
2022-11-20T14:43:25.768Z,18.95
2022-11-20T14:46:05.778Z,20.50
2022-11-20T14:49:01.432Z,19.55
2022-11-20T14:51:42.868Z,18.23
2022-11-20T14:54:25.050Z,18.13
2022-11-20T14:57:03.276Z,17.80
2022-11-20T14:59:35.490Z,18.83
2022-11-20T15:02:07.356Z,19.63
2022-11-20T15:04:33.900Z,18.13
2022-11-20T15:07:02.019Z,17.13
2022-11-20T15:09:28.446Z,17.35
2022-11-20T15:12:04.824Z,18.27
2022-11-20T15:14:38.295Z,16.98
2022-11-20T15:17:04.685Z,18.00
2022-11-20T15:19:31.178Z,16.83
2022-11-20T15:21:57.611Z,17.15
2022-11-20T15:24:24.326Z,17.75
2022-11-20T15:26:50.862Z,17.55
2022-11-20T15:29:22.770Z,15.48
2022-11-20T15:31:49.249Z,16.45
2022-11-20T15:34:16.513Z,15.32
2022-11-20T15:36:43.634Z,14.93
2022-11-20T15:39:10.493Z,16.75
2022-11-20T15:41:37.361Z,16.52
2022-11-20T15:44:05.316Z,16.40
2022-11-20T15:46:38.445Z,17.02
2022-11-20T15:49:06.404Z,16.45
2022-11-20T15:51:36.209Z,16.33
2022-11-20T15:54:11.731Z,17.33
2022-11-20T15:56:38.653Z,16.65
2022-11-20T15:59:05.497Z,16.17
2022-11-20T16:01:32.338Z,16.35
2022-11-20T16:03:58.709Z,16.50
2022-11-20T16:06:25.111Z,17.08
2022-11-20T16:08:51.643Z,16.30
2022-11-20T16:11:19.182Z,16.55
2022-11-20T16:14:04.503Z,15.20
2022-11-20T16:16:34.320Z,15.90
2022-11-20T16:19:01.135Z,17.08
2022-11-20T16:21:32.347Z,16.35
2022-11-20T16:24:01.545Z,16.95
2022-11-20T16:26:28.938Z,17.67
2022-11-20T16:28:56.062Z,17.60
2022-11-20T16:31:23.027Z,16.83
2022-11-20T16:33:54.431Z,16.85
2022-11-20T16:36:22.854Z,18.42
2022-11-20T16:38:54.099Z,17.50
2022-11-20T16:41:20.476Z,18.30
2022-11-20T16:43:52.281Z,17.63
2022-11-20T16:46:23.668Z,19.88
2022-11-20T16:48:54.771Z,19.38
2022-11-20T16:51:23.471Z,19.90
2022-11-20T16:53:53.758Z,20.92
2022-11-20T16:56:22.804Z,19.67
2022-11-20T16:58:51.039Z,19.77
2022-11-20T17:01:21.670Z,22.50
2022-11-20T17:04:01.319Z,19.45
2022-11-20T17:06:30.586Z,19.25
2022-11-20T17:08:57.897Z,19.17
2022-11-20T17:11:25.064Z,20.02
2022-11-20T17:13:52.435Z,19.75
2022-11-20T17:16:21.308Z,21.92
2022-11-20T17:18:49.878Z,21.00
2022-11-20T17:23:45.878Z,19.38
2022-11-20T17:26:14.678Z,19.92
2022-11-20T17:28:41.595Z,19.85
2022-11-20T17:31:10.824Z,21.35
2022-11-20T17:33:38.676Z,19.95
2022-11-20T17:36:06.882Z,20.38
2022-11-20T17:38:34.860Z,19.98
2022-11-20T17:41:15.785Z,19.95
2022-11-20T17:43:43.465Z,20.98
2022-11-20T17:46:20.594Z,21.38
2022-11-20T17:48:49.394Z,21.20
2022-11-20T17:51:23.964Z,21.95
2022-11-20T17:53:52.921Z,21.88
2022-11-20T17:56:38.051Z,20.05
2022-11-20T17:59:09.622Z,20.02
2022-11-20T18:01:36.696Z,21.15
2022-11-20T18:04:03.620Z,22.30
2022-11-20T18:06:31.070Z,21.90
2022-11-20T18:09:01.628Z,21.25
2022-11-20T18:11:30.806Z,19.92
2022-11-20T18:14:17.890Z,20.27
2022-11-20T18:16:51.467Z,20.85
2022-11-20T18:19:20.904Z,22.02
2022-11-20T18:21:47.713Z,21.13
2022-11-20T18:24:15.615Z,22.30
2022-11-20T18:26:44.535Z,21.65
2022-11-20T18:29:13.003Z,23.20
2022-11-20T18:31:40.277Z,21.65
2022-11-20T18:34:11.296Z,23.10
2022-11-20T18:36:39.987Z,22.52
2022-11-20T18:39:06.695Z,20.83
2022-11-20T18:41:51.693Z,22.40
2022-11-20T18:44:39.469Z,21.60
2022-11-20T18:47:14.220Z,17.33
2022-11-20T18:49:44.129Z,22.27
2022-11-20T18:52:11.936Z,22.35
2022-11-20T18:54:38.450Z,22.58
2022-11-20T18:57:05.153Z,23.33
2022-11-20T18:59:34.195Z,24.00
2022-11-20T19:02:00.770Z,23.02
2022-11-20T19:04:27.637Z,24.17
2022-11-20T19:06:56.357Z,23.00
2022-11-20T19:09:24.018Z,22.73
2022-11-20T19:11:52.407Z,23.65
2022-11-20T19:14:18.934Z,25.30
2022-11-20T19:16:45.334Z,23.33
2022-11-20T19:19:11.865Z,22.65
2022-11-20T19:21:38.241Z,21.88
2022-11-20T19:24:05.575Z,22.60
2022-11-20T19:26:34.240Z,24.23
2022-11-20T19:29:00.608Z,24.77
2022-11-20T19:31:28.758Z,23.70
2022-11-20T19:33:57.294Z,22.63
2022-11-20T19:38:53.860Z,22.40
2022-11-20T19:41:29.172Z,24.23
2022-11-20T19:44:13.546Z,22.20
2022-11-20T19:46:41.315Z,21.83
2022-11-20T19:49:10.332Z,23.75
2022-11-20T19:51:38.471Z,23.00
2022-11-20T19:54:05.291Z,22.98
2022-11-20T19:56:34.056Z,22.50
2022-11-20T19:59:01.217Z,22.95
2022-11-20T20:01:30.151Z,23.60
2022-11-20T20:04:01.401Z,21.77
2022-11-20T20:06:28.718Z,21.80
2022-11-20T20:09:05.667Z,21.65
2022-11-20T20:11:34.321Z,23.30
2022-11-20T20:14:07.756Z,23.30
2022-11-20T20:16:35.155Z,23.52
2022-11-20T20:19:03.515Z,22.70
2022-11-20T20:21:30.852Z,22.50
2022-11-20T20:23:58.346Z,22.15
2022-11-20T20:26:27.014Z,25.03
2022-11-20T20:28:55.579Z,23.20
2022-11-20T20:31:27.175Z,22.95
2022-11-20T20:33:56.007Z,21.98
2022-11-20T20:36:23.742Z,22.48
2022-11-20T20:38:54.912Z,22.17
2022-11-20T20:41:23.310Z,23.65
2022-11-20T20:44:08.263Z,21.90
2022-11-20T20:46:34.784Z,21.98
2022-11-20T20:49:01.560Z,20.92
2022-11-20T20:51:28.655Z,21.52
2022-11-20T20:53:54.992Z,22.35
2022-11-20T20:56:21.674Z,22.58
2022-11-20T20:58:48.034Z,21.92
2022-11-20T21:01:16.304Z,20.38
2022-11-20T21:03:42.835Z,20.48
2022-11-20T21:06:10.950Z,20.67
2022-11-20T21:08:40.419Z,19.15
2022-11-20T21:11:10.248Z,19.85
2022-11-20T21:13:37.805Z,20.75
2022-11-20T21:16:06.347Z,19.50
2022-11-20T21:21:18.358Z,18.45
2022-11-20T21:23:47.727Z,20.55
2022-11-20T21:26:16.045Z,19.05
2022-11-20T21:28:42.549Z,19.00
2022-11-20T21:31:22.096Z,19.27
2022-11-20T21:33:50.682Z,18.90
2022-11-20T21:36:22.381Z,18.35
2022-11-20T21:38:51.121Z,17.30
2022-11-20T21:41:17.797Z,18.08
2022-11-20T21:43:44.440Z,18.33
2022-11-20T21:46:13.385Z,18.98
2022-11-20T21:48:41.386Z,18.73
2022-11-20T21:51:15.438Z,19.10
2022-11-20T21:53:45.196Z,18.38
2022-11-20T21:56:16.498Z,18.95
2022-11-20T21:58:48.017Z,20.10
2022-11-20T22:01:16.278Z,18.85
2022-11-20T22:03:47.005Z,18.45
2022-11-20T22:06:14.756Z,18.20
2022-11-20T22:08:41.076Z,17.83
2022-11-20T22:11:11.777Z,18.17
2022-11-20T22:13:57.219Z,17.73
2022-11-20T22:16:23.733Z,17.88
2022-11-20T22:18:52.352Z,19.05
2022-11-20T22:23:46.385Z,17.33
2022-11-20T22:26:15.629Z,18.65
2022-11-20T22:28:43.302Z,17.63
2022-11-20T22:31:11.175Z,19.80
2022-11-20T22:33:38.908Z,18.90
2022-11-20T22:36:09.818Z,19.05
2022-11-20T22:38:39.540Z,19.33
2022-11-20T22:41:09.361Z,18.88
2022-11-20T22:43:36.067Z,18.63
2022-11-20T22:46:16.433Z,18.88
2022-11-20T22:48:51.643Z,19.13
2022-11-20T22:51:22.868Z,16.92
2022-11-20T22:53:49.384Z,18.08
2022-11-20T22:56:19.715Z,18.52
2022-11-20T22:58:48.408Z,16.92
2022-11-20T23:01:17.014Z,16.27
2022-11-20T23:03:45.329Z,17.30
2022-11-20T23:06:13.698Z,16.83
2022-11-20T23:08:41.916Z,16.50
2022-11-20T23:11:13.941Z,15.27
2022-11-20T23:13:40.731Z,15.10
2022-11-20T23:16:10.325Z,16.50
2022-11-20T23:18:37.356Z,16.13
2022-11-20T23:21:18.731Z,17.52
2022-11-20T23:23:51.182Z,17.30
2022-11-20T23:26:19.216Z,17.20
2022-11-20T23:28:46.392Z,18.70
2022-11-20T23:31:14.265Z,17.80
2022-11-20T23:33:42.531Z,18.20
2022-11-20T23:36:09.876Z,16.85
2022-11-20T23:38:36.188Z,18.13
2022-11-20T23:41:03.546Z,18.38
2022-11-20T23:43:30.409Z,16.98
2022-11-20T23:46:04.865Z,17.77
2022-11-20T23:48:34.637Z,19.00
2022-11-20T23:51:03.880Z,17.52
2022-11-20T23:53:30.426Z,17.98
2022-11-20T23:55:58.830Z,17.75
2022-11-20T23:58:30.465Z,18.23
